Time;durP1;ratioP1;P1;durP2;ratioP2;P2;SDS_P1;SDS_P2;PMS_P1;PMS_P2;Temp;Humidity;BMP_temperature;BMP_pressure;BME280_temperature;BME280_humidity;BME280_pressure;Samples;Min_cycle;Max_cycle;Signal;HPM_P1;HPM_P2
2023/05/19 00:01:32;;;;;;;4.15;2.45;;;;;;;;;;4367478;32;69866;-63
2023/05/19 00:04:20;;;;;;;7.20;3.30;;;;;;;;;;4368144;32;66576;-64
2023/05/19 00:07:07;;;;;;;5.05;2.55;;;;;;;;;;4378622;32;72005;-64
2023/05/19 00:09:54;;;;;;;5.37;2.80;;;;;;;;;;4357483;32;65605;-64
2023/05/19 00:12:42;;;;;;;5.82;2.67;;;;;;;;;;4368206;32;67432;-63
2023/05/19 00:15:29;;;;;;;4.45;2.58;;;;;;;;;;4378608;32;66744;-64
2023/05/19 00:18:16;;;;;;;4.93;2.33;;;;;;;;;;4357421;32;70445;-64
2023/05/19 00:21:03;;;;;;;6.12;2.55;;;;;;;;;;4357697;32;66810;-64
2023/05/19 00:23:50;;;;;;;;;;;;;;;;;;4357585;32;67341;-64
2023/05/19 00:26:36;;;;;;;5.53;2.60;;;;;;;;;;4368379;32;58710;-64
2023/05/19 00:29:23;;;;;;;4.75;2.58;;;;;;;;;;4367566;32;70082;-64
2023/05/19 00:32:11;;;;;;;4.03;2.50;;;;;;;;;;4368084;32;69123;-63
2023/05/19 00:34:58;;;;;;;6.25;3.22;;;;;;;;;;4378520;32;67295;-63
2023/05/19 00:37:45;;;;;;;5.75;2.58;;;;;;;;;;4357638;32;59006;-63
2023/05/19 00:40:33;;;;;;;4.35;2.60;;;;;;;;;;4367512;32;71783;-63
2023/05/19 00:43:20;;;;;;;4.68;2.65;;;;;;;;;;4368361;32;69181;-64
2023/05/19 00:46:07;;;;;;;4.93;2.40;;;;;;;;;;4357173;32;66890;-64
2023/05/19 00:48:54;;;;;;;5.45;2.60;;;;;;;;;;4367348;32;71526;-63
2023/05/19 00:51:41;;;;;;;4.87;2.75;;;;;;;;;;4367871;32;65393;-63
2023/05/19 00:54:27;;;;;;;;;;;;;;;;;;4378687;32;67990;-64
2023/05/19 00:57:14;;;;;;;5.60;2.42;;;;;;;;;;4346671;32;60439;-63
2023/05/19 01:00:02;;;;;;;5.57;2.53;;;;;;;;;;4367452;32;70500;-65
2023/05/19 01:02:49;;;;;;;4.10;2.58;;;;;;;;;;4356465;32;67283;-63
2023/05/19 01:05:40;;;;;;;4.97;2.47;;;;;;;;;;4356577;32;68870;-64
2023/05/19 01:08:28;;;;;;;5.05;2.50;;;;;;;;;;4378263;32;59314;-64
2023/05/19 01:11:15;;;;;;;3.75;2.40;;;;;;;;;;4366795;32;70224;-64
2023/05/19 01:14:01;;;;;;;7.50;2.53;;;;;;;;;;4356242;32;66890;-63
2023/05/19 01:17:08;;;;;;;6.00;2.47;;;;;;;;;;4367265;32;68235;-64
2023/05/19 01:20:16;;;;;;;4.73;2.80;;;;;;;;;;4356889;32;71510;-63
2023/05/19 01:23:30;;;;;;;5.45;2.35;;;;;;;;;;4378073;32;66811;-64
2023/05/19 01:26:43;;;;;;;5.10;2.50;;;;;;;;;;4356518;32;67431;-64
2023/05/19 01:29:55;;;;;;;6.65;2.40;;;;;;;;;;4367153;32;67481;-64
2023/05/19 01:32:42;;;;;;;5.28;2.58;;;;;;;;;;4368293;32;70746;-63
2023/05/19 01:35:29;;;;;;;5.45;2.85;;;;;;;;;;4366891;32;66424;-62
2023/05/19 01:38:18;;;;;;;4.15;2.65;;;;;;;;;;4356897;32;67945;-64
2023/05/19 01:41:06;;;;;;;5.55;2.42;;;;;;;;;;4367428;32;59948;-64
2023/05/19 01:43:54;;;;;;;5.72;2.55;;;;;;;;;;4367120;32;70852;-64
2023/05/19 01:46:41;;;;;;;4.60;2.50;;;;;;;;;;4366987;32;68340;-64
2023/05/19 01:49:28;;;;;;;3.62;2.30;;;;;;;;;;4367163;32;66855;-63
2023/05/19 01:52:14;;;;;;;3.33;2.35;;;;;;;;;;4367219;32;71643;-64
2023/05/19 01:55:01;;;;;;;4.65;2.70;;;;;;;;;;4356399;32;70680;-64
2023/05/19 01:57:57;;;;;;;6.47;2.60;;;;;;;;;;4355882;32;70151;-64
2023/05/19 02:00:56;;;;;;;6.80;2.80;;;;;;;;;;4356477;32;66633;-63
2023/05/19 02:04:22;;;;;;;8.05;2.80;;;;;;;;;;4366685;32;71701;-64
2023/05/19 02:07:41;;;;;;;6.37;2.95;;;;;;;;;;4363509;32;66142;-64
2023/05/19 02:10:29;;;;;;;5.15;2.90;;;;;;;;;;4357210;32;68158;-65
2023/05/19 02:13:20;;;;;;;4.78;3.08;;;;;;;;;;4356097;32;60184;-64
2023/05/19 02:16:07;;;;;;;6.15;2.87;;;;;;;;;;4377125;32;69693;-63
2023/05/19 02:18:54;;;;;;;5.53;2.58;;;;;;;;;;4356118;32;68253;-64
2023/05/19 02:21:40;;;;;;;3.60;2.60;;;;;;;;;;4366729;32;66914;-65
2023/05/19 02:24:27;;;;;;;6.72;2.97;;;;;;;;;;4356225;32;60233;-64
2023/05/19 02:27:13;;;;;;;5.47;2.40;;;;;;;;;;4377025;32;69462;-63
2023/05/19 02:30:03;;;;;;;3.78;2.20;;;;;;;;;;4367745;32;69568;-64
2023/05/19 02:32:52;;;;;;;5.47;2.42;;;;;;;;;;4366670;32;67616;-64
2023/05/19 02:35:42;;;;;;;6.82;2.55;;;;;;;;;;4366247;32;72015;-65
2023/05/19 02:38:29;;;;;;;6.87;2.50;;;;;;;;;;4365962;32;66395;-63
2023/05/19 02:41:15;;;;;;;4.60;2.65;;;;;;;;;;4366393;32;67577;-64
2023/05/19 02:44:02;;;;;;;4.55;2.15;;;;;;;;;;4366431;32;60426;-64
2023/05/19 02:46:49;;;;;;;5.03;2.80;;;;;;;;;;4356102;32;70640;-63
2023/05/19 02:49:36;;;;;;;6.80;2.37;;;;;;;;;;4369330;32;65395;-64
2023/05/19 02:52:22;;;;;;;5.57;2.92;;;;;;;;;;4368915;32;67727;-64
2023/05/19 02:55:15;;;;;;;10.93;4.15;;;;;;;;;;4369373;32;59173;-63
2023/05/19 02:58:02;;;;;;;4.87;2.70;;;;;;;;;;4369289;32;69474;-64
2023/05/19 03:00:48;;;;;;;6.03;2.83;;;;;;;;;;4370342;32;69500;-64
2023/05/19 03:03:35;;;;;;;7.03;3.30;;;;;;;;;;4358316;32;66716;-63
2023/05/19 03:06:22;;;;;;;4.57;3.10;;;;;;;;;;4358640;32;71994;-64
2023/05/19 03:09:09;;;;;;;7.07;3.08;;;;;;;;;;4370138;32;69632;-63
2023/05/19 03:11:56;;;;;;;4.10;2.87;;;;;;;;;;4379482;32;68424;-62
2023/05/19 03:14:43;;;;;;;5.15;2.50;;;;;;;;;;4367947;32;68168;-63
2023/05/19 03:17:32;;;;;;;4.45;2.85;;;;;;;;;;4368629;32;71398;-64
2023/05/19 03:20:19;;;;;;;5.03;2.70;;;;;;;;;;4368781;32;66817;-64
2023/05/19 03:23:07;;;;;;;7.72;2.90;;;;;;;;;;4347608;32;68673;-64
2023/05/19 03:25:55;;;;;;;3.78;2.22;;;;;;;;;;4369010;32;58856;-64
2023/05/19 03:28:42;;;;;;;4.45;2.47;;;;;;;;;;4369924;32;70382;-62
2023/05/19 03:31:29;;;;;;;6.90;2.17;;;;;;;;;;4360050;32;68451;-64
2023/05/19 03:34:16;;;;;;;7.28;2.70;;;;;;;;;;4371141;32;67996;-62
2023/05/19 03:37:05;;;;;;;2.92;2.30;;;;;;;;;;4362671;32;60204;-64
2023/05/19 03:39:52;;;;;;;5.65;2.50;;;;;;;;;;4369180;32;70298;-63
2023/05/19 03:42:39;;;;;;;3.37;2.37;;;;;;;;;;4368780;32;68284;-64
2023/05/19 03:45:26;;;;;;;3.80;2.42;;;;;;;;;;4367927;32;68740;-64
2023/05/19 03:48:14;;;;;;;5.03;2.97;;;;;;;;;;4379074;32;71646;-63
2023/05/19 03:53:41;;;;;;;4.30;2.40;;;;;;;;;;3847623;37;43078;-64
2023/05/19 03:56:28;;;;;;;7.32;2.50;;;;;;;;;;4410240;32;60182;-63
2023/05/19 03:59:15;;;;;;;6.12;2.60;;;;;;;;;;4409403;32;71311;-64
2023/05/19 04:02:02;;;;;;;4.20;2.45;;;;;;;;;;4378018;32;68841;-64
2023/05/19 04:04:49;;;;;;;4.20;2.30;;;;;;;;;;4388302;32;68311;-64
2023/05/19 04:07:36;;;;;;;5.12;2.28;;;;;;;;;;4388392;32;71704;-65
2023/05/19 04:10:22;;;;;;;;;;;;;;;;;;4388526;32;65446;-63
2023/05/19 04:13:09;;;;;;;5.05;2.58;;;;;;;;;;4411070;32;66528;-64
2023/05/19 04:15:55;;;;;;;;;;;;;;;;;;4410344;32;59528;-64
2023/05/19 04:18:44;;;;;;;7.90;2.60;;;;;;;;;;4410976;32;71917;-64
2023/05/19 04:21:30;;;;;;;4.60;2.10;;;;;;;;;;4409574;32;65552;-63
2023/05/19 04:24:17;;;;;;;9.70;2.75;;;;;;;;;;4411161;32;67589;-64
2023/05/19 04:27:10;;;;;;;3.75;2.40;;;;;;;;;;4399255;32;59914;-63
2023/05/19 04:29:57;;;;;;;8.10;2.50;;;;;;;;;;4399265;32;69595;-63
2023/05/19 04:32:44;;;;;;;6.25;2.62;;;;;;;;;;4410001;32;69144;-65
2023/05/19 04:35:31;;;;;;;8.00;3.17;;;;;;;;;;4388211;32;67851;-63
2023/05/19 04:38:18;;;;;;;3.62;2.50;;;;;;;;;;4398629;32;71966;-63
2023/05/19 04:41:09;;;;;;;4.45;1.95;;;;;;;;;;4388246;32;67033;-64
2023/05/19 04:43:57;;;;;;;4.70;2.25;;;;;;;;;;4388344;32;68465;-63
2023/05/19 04:46:44;;;;;;;5.93;2.47;;;;;;;;;;4409223;32;67516;-64
2023/05/19 04:49:31;;;;;;;5.00;2.25;;;;;;;;;;4399070;32;71725;-65
2023/05/19 04:52:20;;;;;;;6.03;2.65;;;;;;;;;;4399310;32;66389;-64
2023/05/19 04:55:10;;;;;;;6.82;2.83;;;;;;;;;;4397941;32;68376;-65
2023/05/19 04:57:56;;;;;;;5.37;2.85;;;;;;;;;;4391559;32;60534;-63
2023/05/19 05:00:43;;;;;;;4.45;2.60;;;;;;;;;;4413863;32;70654;-64
2023/05/19 05:03:33;;;;;;;7.05;2.45;;;;;;;;;;4398516;32;70018;-63
2023/05/19 05:06:21;;;;;;;7.00;2.97;;;;;;;;;;4390547;32;67539;-64
2023/05/19 05:09:09;;;;;;;8.65;3.62;;;;;;;;;;4377962;32;59830;-64
2023/05/19 05:11:56;;;;;;;11.38;6.12;;;;;;;;;;4398588;32;69442;-64
2023/05/19 05:14:44;;;;;;;7.82;4.57;;;;;;;;;;4366281;32;69844;-63
2023/05/19 05:17:34;;;;;;;9.05;4.32;;;;;;;;;;4388595;32;67473;-64
2023/05/19 05:20:22;;;;;;;8.43;4.50;;;;;;;;;;4387198;32;72491;-64
2023/05/19 05:23:14;;;;;;;8.25;4.20;;;;;;;;;;4377220;32;66617;-64
2023/05/19 05:26:06;;;;;;;10.52;4.72;;;;;;;;;;4388458;32;66744;-63
2023/05/19 05:28:52;;;;;;;11.95;5.57;;;;;;;;;;4377291;32;61291;-62
2023/05/19 05:31:39;;;;;;;;;;;;;;;;;;4400041;32;69634;-64
2023/05/19 05:34:26;;;;;;;8.80;4.80;;;;;;;;;;4400421;32;66787;-64
2023/05/19 05:37:13;;;;;;;10.70;5.72;;;;;;;;;;4388758;32;66546;-64
2023/05/19 05:40:00;;;;;;;7.78;4.95;;;;;;;;;;4377437;32;59901;-63
2023/05/19 05:42:47;;;;;;;9.00;5.62;;;;;;;;;;4387234;32;71227;-64
2023/05/19 05:45:35;;;;;;;11.32;5.35;;;;;;;;;;4398286;32;69118;-64
2023/05/19 05:48:22;;;;;;;13.82;6.95;;;;;;;;;;4387653;32;67002;-64
2023/05/19 05:51:10;;;;;;;15.43;6.95;;;;;;;;;;4376908;32;71886;-64
2023/05/19 05:53:57;;;;;;;6.30;4.62;;;;;;;;;;4376885;32;66637;-64
2023/05/19 05:56:49;;;;;;;7.40;4.70;;;;;;;;;;4388333;32;66775;-64
2023/05/19 05:59:37;;;;;;;9.38;5.10;;;;;;;;;;4377064;32;67739;-65
2023/05/19 06:02:24;;;;;;;9.05;4.30;;;;;;;;;;4387917;32;70711;-64
2023/05/19 06:05:11;;;;;;;9.38;4.35;;;;;;;;;;4398196;32;65447;-62
2023/05/19 06:07:57;;;;;;;11.88;5.47;;;;;;;;;;4386910;32;67908;-65
2023/05/19 06:10:44;;;;;;;9.50;4.95;;;;;;;;;;4398331;32;60441;-64
2023/05/19 06:13:31;;;;;;;;;;;;;;;;;;4398470;32;70474;-64
2023/05/19 06:16:18;;;;;;;10.23;4.40;;;;;;;;;;4397091;32;69231;-65
2023/05/19 06:19:04;;;;;;;6.07;4.10;;;;;;;;;;4376892;32;67898;-63
2023/05/19 06:21:51;;;;;;;11.38;4.12;;;;;;;;;;4387043;32;59500;-64
2023/05/19 06:24:38;;;;;;;9.60;3.92;;;;;;;;;;4387070;32;70371;-63
2023/05/19 06:27:25;;;;;;;8.90;3.80;;;;;;;;;;4387069;32;69470;-63
2023/05/19 06:30:12;;;;;;;;;;;;;;;;;;4388627;32;68194;-63
2023/05/19 06:33:00;;;;;;;9.15;3.40;;;;;;;;;;4389800;32;72039;-63
2023/05/19 06:35:47;;;;;;;6.20;3.10;;;;;;;;;;4397507;32;66216;-64
2023/05/19 06:38:34;;;;;;;7.45;2.62;;;;;;;;;;4396967;32;68103;-64
2023/05/19 06:41:21;;;;;;;;;;;;;;;;;;4387391;32;59242;-63
2023/05/19 06:44:10;;;;;;;6.05;3.00;;;;;;;;;;4387014;32;69300;-63
2023/05/19 06:46:56;;;;;;;8.02;2.53;;;;;;;;;;4375692;32;64003;-64
2023/05/19 06:49:44;;;;;;;3.67;2.67;;;;;;;;;;4375906;32;66629;-62
2023/05/19 06:52:31;;;;;;;4.62;2.25;;;;;;;;;;4386727;32;60038;-63
2023/05/19 06:55:19;;;;;;;4.25;2.80;;;;;;;;;;4398747;32;69412;-64
2023/05/19 06:58:08;;;;;;;11.12;4.03;;;;;;;;;;4388749;32;69302;-64
2023/05/19 07:00:55;;;;;;;8.07;2.90;;;;;;;;;;4386347;32;68041;-63
2023/05/19 07:05:21;;;;;;;7.00;2.58;;;;;;;;;;3847256;37;43875;-63
2023/05/19 07:08:09;;;;;;;8.18;2.50;;;;;;;;;;4399726;32;60200;-63
2023/05/19 07:10:55;;;;;;;6.85;2.60;;;;;;;;;;4387978;32;70477;-62
2023/05/19 07:13:42;;;;;;;4.40;2.60;;;;;;;;;;4410992;32;68722;-63
2023/05/19 07:16:30;;;;;;;5.82;3.17;;;;;;;;;;4387834;32;68297;-63
2023/05/19 07:19:20;;;;;;;5.55;2.72;;;;;;;;;;4388334;32;72785;-66
2023/05/19 07:22:07;;;;;;;6.50;2.83;;;;;;;;;;4410078;32;66414;-63
2023/05/19 07:24:55;;;;;;;6.85;2.65;;;;;;;;;;4388097;32;67283;-64
2023/05/19 07:27:42;;;;;;;4.57;2.50;;;;;;;;;;4388617;32;60309;-62
2023/05/19 07:30:29;;;;;;;5.05;3.20;;;;;;;;;;4377034;32;72408;-63
2023/05/19 07:33:16;;;;;;;;;;;;;;;;;;4387428;32;67632;-63
2023/05/19 07:36:03;;;;;;;7.28;2.70;;;;;;;;;;4409670;32;67164;-64
2023/05/19 07:38:49;;;;;;;;;;;;;;;;;;4410174;32;60107;-63
2023/05/19 07:41:36;;;;;;;3.30;2.17;;;;;;;;;;4409468;32;70400;-63
2023/05/19 07:44:23;;;;;;;6.62;2.55;;;;;;;;;;4409251;32;68205;-64
2023/05/19 07:47:09;;;;;;;7.05;2.60;;;;;;;;;;4411095;32;67631;-63
2023/05/19 07:49:56;;;;;;;;;;;;;;;;;;4393126;32;72180;-63
2023/05/19 07:52:42;;;;;;;3.78;2.47;;;;;;;;;;4399405;32;66821;-62
2023/05/19 07:55:29;;;;;;;4.55;2.50;;;;;;;;;;4387945;32;68065;-63
2023/05/19 07:58:16;;;;;;;6.82;2.60;;;;;;;;;;4388101;32;67798;-63
2023/05/19 08:01:03;;;;;;;4.32;2.58;;;;;;;;;;4388568;32;72779;-62
2023/05/19 08:03:50;;;;;;;4.15;2.12;;;;;;;;;;4397248;32;67637;-64
2023/05/19 08:06:37;;;;;;;4.75;2.47;;;;;;;;;;4387310;32;68611;-63
2023/05/19 08:09:24;;;;;;;5.12;2.62;;;;;;;;;;4409585;32;60415;-64
2023/05/19 08:12:10;;;;;;;3.47;2.17;;;;;;;;;;4387164;32;69803;-63
2023/05/19 08:14:57;;;;;;;2.50;2.05;;;;;;;;;;4405860;32;69742;-63
2023/05/19 08:17:44;;;;;;;3.72;2.20;;;;;;;;;;4388006;32;67771;-63
2023/05/19 08:20:32;;;;;;;6.10;2.72;;;;;;;;;;4388414;32;59653;-63
2023/05/19 08:23:19;;;;;;;4.62;2.70;;;;;;;;;;4398416;32;70655;-64
2023/05/19 08:26:06;;;;;;;4.82;2.40;;;;;;;;;;4387880;32;68622;-65
2023/05/19 08:28:53;;;;;;;;;;;;;;;;;;4399105;32;67630;-63
2023/05/19 08:31:40;;;;;;;4.78;2.45;;;;;;;;;;4399148;32;71789;-64
2023/05/19 08:34:26;;;;;;;3.60;2.40;;;;;;;;;;4377406;32;65850;-63
2023/05/19 08:37:14;;;;;;;6.10;2.83;;;;;;;;;;4388231;32;66733;-63
2023/05/19 08:40:02;;;;;;;;;;;;;;;;;;4366622;32;60215;-63
2023/05/19 08:42:50;;;;;;;4.25;2.72;;;;;;;;;;4377517;32;70104;-63
2023/05/19 08:45:37;;;;;;;3.95;2.30;;;;;;;;;;4388057;32;65612;-64
2023/05/19 08:48:24;;;;;;;4.03;1.80;;;;;;;;;;4377227;32;67754;-63
2023/05/19 08:51:34;;;;;;;2.08;1.65;;;;;;;;;;4398948;32;59845;-64
2023/05/19 08:54:26;;;;;;;3.35;2.20;;;;;;;;;;4387765;32;69648;-63
2023/05/19 08:57:13;;;;;;;5.28;2.30;;;;;;;;;;4400148;32;69143;-65
2023/05/19 09:00:00;;;;;;;5.53;2.17;;;;;;;;;;4393401;32;67815;-63
2023/05/19 09:02:49;;;;;;;6.03;2.42;;;;;;;;;;4393259;32;72466;-64
2023/05/19 09:05:36;;;;;;;2.75;2.08;;;;;;;;;;4389821;32;66905;-62
2023/05/19 09:08:23;;;;;;;3.70;2.00;;;;;;;;;;4376925;32;67777;-63
2023/05/19 09:11:10;;;;;;;3.90;2.17;;;;;;;;;;4365894;32;68468;-63
2023/05/19 09:13:57;;;;;;;;;;;;;;;;;;4377456;32;70845;-63
2023/05/19 09:16:48;;;;;;;5.20;3.00;;;;;;;;;;4399554;32;66376;-64
2023/05/19 09:19:34;;;;;;;3.87;2.40;;;;;;;;;;4366176;32;68365;-63
2023/05/19 09:22:22;;;;;;;5.85;2.33;;;;;;;;;;4376916;32;59981;-64
2023/05/19 09:25:20;;;;;;;7.05;2.67;;;;;;;;;;4376410;32;70488;-62
2023/05/19 09:28:10;;;;;;;6.18;2.70;;;;;;;;;;4401545;32;68716;-62
2023/05/19 09:31:04;;;;;;;5.68;2.50;;;;;;;;;;4387342;32;67794;-63
2023/05/19 09:33:53;;;;;;;8.75;2.67;;;;;;;;;;4387603;32;60021;-63
2023/05/19 09:36:43;;;;;;;6.55;2.83;;;;;;;;;;4387021;32;70573;-63
2023/05/19 09:39:31;;;;;;;3.33;2.08;;;;;;;;;;4397633;32;69099;-63
2023/05/19 09:42:28;;;;;;;7.40;2.53;;;;;;;;;;4387198;32;67510;-64
2023/05/19 09:45:16;;;;;;;3.25;2.22;;;;;;;;;;4397442;32;70467;-64
2023/05/19 09:48:06;;;;;;;4.78;2.45;;;;;;;;;;4365218;32;67486;-62
2023/05/19 09:50:53;;;;;;;8.48;2.50;;;;;;;;;;4376357;32;67078;-64
2023/05/19 09:53:40;;;;;;;5.32;2.22;;;;;;;;;;4386775;32;60274;-63
2023/05/19 09:56:38;;;;;;;5.50;2.58;;;;;;;;;;4365826;32;70281;-63
2023/05/19 09:59:25;;;;;;;7.70;2.80;;;;;;;;;;4395479;32;66107;-63
2023/05/19 10:02:19;;;;;;;7.35;2.50;;;;;;;;;;4365611;32;67048;-64
2023/05/19 10:05:06;;;;;;;5.18;2.47;;;;;;;;;;4386969;32;60714;-64
2023/05/19 10:07:54;;;;;;;6.80;2.90;;;;;;;;;;4364974;32;71185;-63
2023/05/19 10:10:41;;;;;;;4.20;2.45;;;;;;;;;;4385895;32;69000;-64
2023/05/19 10:13:29;;;;;;;6.07;2.65;;;;;;;;;;4367785;32;67404;-64
2023/05/19 10:16:16;;;;;;;5.65;2.97;;;;;;;;;;4405206;32;71881;-61
2023/05/19 10:19:03;;;;;;;5.57;2.70;;;;;;;;;;4404962;32;65850;-64
2023/05/19 10:21:50;;;;;;;6.95;3.25;;;;;;;;;;4400504;32;66872;-64
2023/05/19 10:24:37;;;;;;;5.40;2.90;;;;;;;;;;4386976;32;67621;-62
2023/05/19 10:27:26;;;;;;;5.18;2.70;;;;;;;;;;4374905;32;72277;-63
2023/05/19 10:30:16;;;;;;;8.10;3.40;;;;;;;;;;4386699;32;65628;-63
2023/05/19 10:33:06;;;;;;;5.55;2.78;;;;;;;;;;4397035;32;67634;-63
2023/05/19 10:36:21;;;;;;;6.50;3.20;;;;;;;;;;4386890;32;60287;-63
2023/05/19 10:39:32;;;;;;;6.35;3.20;;;;;;;;;;4396660;32;70212;-63
2023/05/19 10:42:44;;;;;;;7.75;2.87;;;;;;;;;;4375783;32;68213;-62
2023/05/19 10:45:35;;;;;;;7.32;3.50;;;;;;;;;;4397115;32;66451;-62
2023/05/19 10:48:22;;;;;;;8.13;3.78;;;;;;;;;;4386944;32;71284;-63
2023/05/19 10:51:10;;;;;;;10.95;3.53;;;;;;;;;;4397531;32;70657;-64
2023/05/19 10:54:01;;;;;;;5.45;2.72;;;;;;;;;;4386459;32;69023;-62
2023/05/19 10:56:48;;;;;;;7.70;2.67;;;;;;;;;;4398327;32;67252;-63
2023/05/19 10:59:38;;;;;;;;;;;;;;;;;;4386430;32;71890;-64
2023/05/19 11:02:39;;;;;;;6.72;2.87;;;;;;;;;;4386365;32;67118;-62
2023/05/19 11:05:30;;;;;;;7.22;2.85;;;;;;;;;;4363784;32;68927;-62
2023/05/19 11:08:17;;;;;;;6.70;3.00;;;;;;;;;;4386136;32;59803;-63
2023/05/19 11:11:16;;;;;;;4.00;2.67;;;;;;;;;;4375042;32;71183;-64
2023/05/19 11:14:04;;;;;;;4.70;2.45;;;;;;;;;;4375322;32;68562;-64
2023/05/19 11:16:52;;;;;;;3.75;2.70;;;;;;;;;;4386041;32;67356;-63
2023/05/19 11:19:40;;;;;;;6.53;2.95;;;;;;;;;;4386254;32;59281;-63
2023/05/19 11:22:28;;;;;;;7.40;2.70;;;;;;;;;;4386060;32;70936;-63
2023/05/19 11:25:18;;;;;;;6.90;2.80;;;;;;;;;;4375188;32;68459;-62
2023/05/19 11:28:05;;;;;;;5.80;3.37;;;;;;;;;;4374401;32;68721;-62
2023/05/19 11:30:56;;;;;;;5.68;2.90;;;;;;;;;;4386211;32;72107;-63
2023/05/19 11:33:42;;;;;;;5.45;3.03;;;;;;;;;;4385765;32;66647;-63
2023/05/19 11:36:30;;;;;;;7.37;3.10;;;;;;;;;;4384642;32;67527;-62
2023/05/19 11:42:00;;;;;;;6.68;3.08;;;;;;;;;;3847307;37;43927;-63
2023/05/19 11:44:48;;;;;;;5.00;2.80;;;;;;;;;;4388361;32;59345;-62
2023/05/19 11:47:34;;;;;;;8.52;2.87;;;;;;;;;;4409344;32;70468;-62
2023/05/19 11:50:21;;;;;;;6.65;3.22;;;;;;;;;;4397893;32;68207;-61
2023/05/19 11:53:08;;;;;;;7.72;2.28;;;;;;;;;;4409153;32;66743;-63
2023/05/19 11:55:54;;;;;;;5.18;2.37;;;;;;;;;;4398474;32;71923;-63
2023/05/19 11:58:41;;;;;;;5.65;3.00;;;;;;;;;;4387433;32;67240;-61
2023/05/19 12:01:30;;;;;;;11.85;3.80;;;;;;;;;;4409086;32;66313;-62
2023/05/19 12:04:19;;;;;;;5.40;2.83;;;;;;;;;;4409483;32;59081;-63
2023/05/19 12:07:06;;;;;;;5.05;2.33;;;;;;;;;;4387741;32;71646;-63
2023/05/19 12:09:54;;;;;;;5.47;2.70;;;;;;;;;;4409904;32;65369;-63
2023/05/19 12:12:41;;;;;;;4.75;2.72;;;;;;;;;;4398941;32;66855;-62
2023/05/19 12:15:28;;;;;;;5.53;2.80;;;;;;;;;;4398079;32;60284;-61
2023/05/19 12:18:14;;;;;;;7.82;3.28;;;;;;;;;;4398190;32;69536;-63
2023/05/19 12:21:01;;;;;;;6.15;3.00;;;;;;;;;;4377191;32;71617;-63
2023/05/19 12:23:48;;;;;;;5.90;2.78;;;;;;;;;;4416965;32;67965;-64
2023/05/19 12:26:36;;;;;;;8.20;3.47;;;;;;;;;;4398949;32;71653;-63
2023/05/19 12:29:28;;;;;;;7.37;2.50;;;;;;;;;;4410131;32;65402;-63
2023/05/19 12:32:15;;;;;;;8.27;2.90;;;;;;;;;;4386917;32;69978;-63
2023/05/19 12:35:03;;;;;;;;;;;;;;;;;;4398741;32;67882;-61
2023/05/19 12:37:50;;;;;;;;;;;;;;;;;;4409487;32;71097;-62
2023/05/19 12:40:38;;;;;;;5.75;2.60;;;;;;;;;;4409115;32;65858;-63
2023/05/19 12:43:25;;;;;;;6.18;2.60;;;;;;;;;;4387687;32;66719;-63
2023/05/19 12:46:12;;;;;;;8.25;2.78;;;;;;;;;;4398681;32;59188;-63
2023/05/19 12:48:59;;;;;;;7.32;2.62;;;;;;;;;;4398136;32;69437;-62
2023/05/19 12:51:53;;;;;;;5.60;2.50;;;;;;;;;;4394356;32;68956;-62
2023/05/19 12:54:39;;;;;;;5.50;2.75;;;;;;;;;;4388135;32;67669;-63
2023/05/19 12:57:26;;;;;;;;;;;;;;;;;;4378087;32;58951;-63
2023/05/19 13:00:16;;;;;;;5.23;2.80;;;;;;;;;;4387706;32;70525;-64
2023/05/19 13:03:08;;;;;;;5.28;3.00;;;;;;;;;;4398928;32;68521;-63
2023/05/19 13:08:09;;;;;;;5.05;2.80;;;;;;;;;;3847451;37;43885;-62
2023/05/19 13:10:57;;;;;;;10.55;3.03;;;;;;;;;;4399279;32;60414;-63
2023/05/19 13:13:44;;;;;;;8.43;3.40;;;;;;;;;;4385041;32;71194;-61
2023/05/19 13:16:31;;;;;;;;;;;;;;;;;;4374404;32;66997;-62
2023/05/19 13:19:18;;;;;;;6.18;3.25;;;;;;;;;;4395887;32;67926;-62
2023/05/19 13:22:05;;;;;;;7.80;3.65;;;;;;;;;;4384226;32;71950;-62
2023/05/19 13:24:52;;;;;;;7.47;2.53;;;;;;;;;;4384052;32;66761;-63
2023/05/19 13:27:39;;;;;;;;;;;;;;;;;;4383945;32;67137;-62
2023/05/19 13:30:26;;;;;;;10.40;2.62;;;;;;;;;;4373498;32;58941;-61
2023/05/19 13:33:14;;;;;;;9.73;2.80;;;;;;;;;;4383551;32;71900;-62
2023/05/19 13:36:00;;;;;;;11.27;3.00;;;;;;;;;;4383276;32;65745;-62
2023/05/19 13:38:47;;;;;;;8.68;2.12;;;;;;;;;;4383710;32;66728;-62
2023/05/19 13:41:33;;;;;;;5.93;2.05;;;;;;;;;;4383803;32;60178;-63
2023/05/19 13:44:20;;;;;;;5.07;2.00;;;;;;;;;;4395112;32;69634;-63
2023/05/19 13:47:07;;;;;;;3.55;2.20;;;;;;;;;;4383298;32;68794;-63
2023/05/19 13:49:53;;;;;;;6.93;2.45;;;;;;;;;;4395743;32;65917;-63
2023/05/19 13:52:40;;;;;;;7.97;2.85;;;;;;;;;;4393928;32;70719;-62
2023/05/19 13:55:27;;;;;;;6.50;2.55;;;;;;;;;;4394254;32;66767;-62
2023/05/19 13:58:15;;;;;;;;;;;;;;;;;;4383374;32;69552;-61
2023/05/19 14:01:02;;;;;;;7.97;2.80;;;;;;;;;;4395355;32;68044;-63
2023/05/19 14:03:49;;;;;;;5.62;2.40;;;;;;;;;;4372697;32;71793;-61
2023/05/19 14:06:37;;;;;;;;;;;;;;;;;;4371426;32;65231;-62
2023/05/19 14:09:24;;;;;;;6.72;2.90;;;;;;;;;;4383385;32;67435;-60
2023/05/19 14:12:11;;;;;;;;;;;;;;;;;;4382907;32;58900;-62
2023/05/19 14:14:58;;;;;;;6.20;2.47;;;;;;;;;;4395689;32;69047;-62
2023/05/19 14:17:44;;;;;;;7.35;2.47;;;;;;;;;;4381711;32;68376;-62
2023/05/19 14:20:31;;;;;;;3.85;2.25;;;;;;;;;;4386112;32;66886;-61
2023/05/19 14:23:19;;;;;;;;;;;;;;;;;;4380541;32;59129;-61
2023/05/19 14:26:05;;;;;;;9.27;2.47;;;;;;;;;;4389857;32;70225;-62
2023/05/19 14:28:52;;;;;;;11.80;2.83;;;;;;;;;;4377280;32;68251;-63
2023/05/19 14:31:39;;;;;;;6.37;2.95;;;;;;;;;;4383878;32;66870;-63
2023/05/19 14:34:25;;;;;;;4.72;2.50;;;;;;;;;;4372369;32;71114;-63
2023/05/19 14:37:12;;;;;;;4.80;2.12;;;;;;;;;;4372950;32;66550;-63
2023/05/19 14:39:59;;;;;;;;;;;;;;;;;;4384117;32;67776;-63
2023/05/19 14:42:46;;;;;;;6.18;2.10;;;;;;;;;;4383902;32;59065;-64
2023/05/19 14:45:32;;;;;;;6.32;2.33;;;;;;;;;;4372570;32;70560;-62
2023/05/19 14:48:20;;;;;;;5.90;1.70;;;;;;;;;;4372741;32;65591;-63
2023/05/19 14:51:06;;;;;;;6.62;2.33;;;;;;;;;;4383402;32;67529;-63
2023/05/19 14:53:52;;;;;;;;;;;;;;;;;;4385218;32;59341;-63
2023/05/19 14:56:39;;;;;;;6.87;2.00;;;;;;;;;;4383342;32;69864;-63
2023/05/19 14:59:26;;;;;;;3.35;2.35;;;;;;;;;;4371710;32;68969;-64
2023/05/19 15:02:12;;;;;;;9.73;2.37;;;;;;;;;;4372309;32;66758;-63
2023/05/19 15:04:59;;;;;;;;;;;;;;;;;;4383081;32;71320;-62
2023/05/19 15:07:46;;;;;;;6.73;2.60;;;;;;;;;;4372317;32;66889;-62
2023/05/19 15:10:32;;;;;;;;;;;;;;;;;;4372819;32;66677;-62
2023/05/19 15:13:20;;;;;;;6.30;2.60;;;;;;;;;;4360890;32;67427;-63
2023/05/19 15:16:09;;;;;;;6.97;2.53;;;;;;;;;;4382560;32;70705;-61
2023/05/19 15:18:56;;;;;;;5.97;2.30;;;;;;;;;;4373490;32;66680;-63
2023/05/19 15:21:44;;;;;;;8.07;2.80;;;;;;;;;;4371897;32;66511;-62
2023/05/19 15:24:30;;;;;;;6.40;2.62;;;;;;;;;;4382993;32;59171;-62
2023/05/19 15:27:18;;;;;;;7.12;2.20;;;;;;;;;;4360611;32;71649;-62
2023/05/19 15:30:05;;;;;;;4.62;1.92;;;;;;;;;;4360670;32;69218;-62
2023/05/19 15:32:52;;;;;;;9.63;2.53;;;;;;;;;;4372118;32;67740;-62
2023/05/19 15:35:39;;;;;;;6.57;2.60;;;;;;;;;;4382788;32;59979;-62
2023/05/19 15:38:26;;;;;;;7.22;2.60;;;;;;;;;;4383924;32;70331;-61
2023/05/19 15:41:12;;;;;;;10.10;2.62;;;;;;;;;;4381740;32;70392;-62
2023/05/19 15:43:59;;;;;;;11.65;2.67;;;;;;;;;;4360710;32;67772;-61
2023/05/19 15:46:46;;;;;;;;;;;;;;;;;;4383765;32;71402;-62
2023/05/19 15:49:32;;;;;;;7.32;3.15;;;;;;;;;;4383677;32;66435;-61
2023/05/19 15:52:19;;;;;;;6.47;2.58;;;;;;;;;;4383720;32;67951;-62
2023/05/19 15:55:06;;;;;;;6.93;2.90;;;;;;;;;;4382500;32;60077;-62
2023/05/19 15:59:36;;;;;;;9.45;3.10;;;;;;;;;;3863468;36;43797;-62
2023/05/19 16:02:23;;;;;;;7.00;2.72;;;;;;;;;;4414725;32;59255;-62
2023/05/19 16:05:09;;;;;;;8.88;2.60;;;;;;;;;;4403472;32;70464;-62
2023/05/19 16:07:56;;;;;;;10.30;3.70;;;;;;;;;;4392876;32;69255;-63
2023/05/19 16:10:43;;;;;;;12.20;3.20;;;;;;;;;;4403616;32;67646;-63
2023/05/19 16:13:32;;;;;;;8.48;2.83;;;;;;;;;;4388023;32;71560;-61
2023/05/19 16:16:19;;;;;;;8.20;3.20;;;;;;;;;;4388712;32;65525;-63
2023/05/19 16:19:05;;;;;;;7.90;2.75;;;;;;;;;;4385849;32;67519;-62
2023/05/19 16:21:52;;;;;;;7.25;2.87;;;;;;;;;;4388706;32;59183;-62
2023/05/19 16:24:39;;;;;;;10.82;2.95;;;;;;;;;;4388427;32;72293;-61
2023/05/19 16:27:26;;;;;;;;;;;;;;;;;;4375897;32;66421;-62
2023/05/19 16:30:12;;;;;;;6.60;3.30;;;;;;;;;;4400831;32;67377;-63
2023/05/19 16:33:00;;;;;;;10.55;4.28;;;;;;;;;;4387896;32;59907;-62
2023/05/19 16:35:46;;;;;;;8.10;3.83;;;;;;;;;;4377890;32;69928;-62
2023/05/19 16:38:33;;;;;;;10.57;3.37;;;;;;;;;;4399326;32;68425;-61
2023/05/19 16:41:20;;;;;;;;;;;;;;;;;;4397764;32;68239;-63
2023/05/19 16:44:07;;;;;;;11.70;4.00;;;;;;;;;;4386166;32;72123;-62
2023/05/19 16:46:53;;;;;;;12.25;3.50;;;;;;;;;;4388665;32;67546;-62
2023/05/19 16:49:41;;;;;;;10.13;3.87;;;;;;;;;;4386249;32;69736;-61
2023/05/19 16:52:27;;;;;;;10.73;3.92;;;;;;;;;;4396992;32;68084;-61
2023/05/19 16:55:18;;;;;;;9.65;4.20;;;;;;;;;;4386132;32;72590;-62
2023/05/19 16:58:04;;;;;;;9.75;5.22;;;;;;;;;;4377922;32;65472;-61
2023/05/19 17:00:51;;;;;;;;;;;;;;;;;;4400191;32;67396;-62
2023/05/19 17:03:38;;;;;;;10.90;4.30;;;;;;;;;;4409620;32;60116;-61
2023/05/19 17:06:24;;;;;;;12.02;4.37;;;;;;;;;;4389250;32;70588;-62
2023/05/19 17:09:11;;;;;;;;;;;;;;;;;;4408322;32;69587;-62